Portland Troutdale Airport
KTTD : now visible

Airfield :











YOU CAN JOIN US ON...

 
LOGIN :

Register | Disclaimer

   EN    FR    IT 

 









Legend :    VFR   Marginal VFR   IFR   Intensive IFR   Very Intensive IFR
Visi :
Ceiling :
>= 8 km
>= 3000ft
5 to 8 km
1000 to 3000 ft
1500m to 5 km
500 to 1000 ft
800 to 1500m
200 to 500 ft
< 800m
< 200 ft
Symbols :   Thunderstorms  Fog  Heavy snow  Heavy precipitations  Wind > 20 kt






- Airport Elevation : 39 ft


KTTD - Portland Troutdale

CURRENT METAR :
  • 250753Z AUTO 00000KT 10SM CLR 16/11 A2996 RMK AO2 SLP146 T01610106 402560106

EXPIRED METARs :
  • 250653Z AUTO 00000KT 10SM CLR 18/10 A2996 RMK AO2 SLP146 T01780100
  • 250553Z AUTO 26004KT 10SM CLR 19/10 A2997 RMK AO2 SLP147 T01940100 10256 20189 53003
  • 250453Z AUTO 25003KT 10SM CLR 20/11 A2996 RMK AO2 SLP146 T02000106
  • 250353Z AUTO 27003KT 10SM CLR 21/10 A2995 RMK AO2 SLP143 T02110100

TAF KTTD
Valid from the 25 at 06:00 until the 26 at 06:00 UTC


250520Z 2506/2606 VRB04KT P6SM SKC
FM251200 VRB03KT P6SM SCT015
FM251600 VRB03KT P6SM SKC
KZSE FIR / North America



MET'MAP, your aeronautical weather chart ! - Copyright ORBIFLY December 2007 - Disclaimer

ORBIFLY MET'MAP TEAM :

Programming & Development : Alexandra Zaïnal
Original concept : Baudouin d'Aumeries
Technical & hardware support : Manuel Goepfert
Assistance : Marc-Olivier Méhu




SOURCES & CREDITS :

   NOAA       Earth
Advisory